MUCU/SCU METAR and TAF weather

Enter ICAO airport designator
Station Type Date Time Source
MUCU METAR 2019/02/16 16:52 UTC NOAA

MUCU 161652Z 17007KT 9000 SCT020 SCT030 28/20 Q1015


Station Type Date Time Source
MUCU Decoded METAR 2019/02/16 16:52 UTC NOAA

Santiago De Cuba, Oriente, Cuba (MUCU) 19-58N 075-51W 55M
Feb 16, 2019 - 11:52 AM EST / 2019.02.16 1652 UTC
Wind: from the S (170 degrees) at 8 MPH (7 KT):0
Visibility: 5 mile(s):0
Sky conditions: partly cloudy
Temperature: 82 F (28 C)
Dew Point: 68 F (20 C)
Relative Humidity: 61%
Pressure (altimeter): 29.97 in. Hg (1015 hPa)
ob: MUCU 161652Z 17007KT 9000 SCT020 SCT030 28/20 Q1015
cycle: 17

Station Type Date Time Source
MUCU TAF 2019/02/16 18:04 UTC NOAA

TAF MUCU 161700Z 1618/1718 17008KT 9000 SCT020
BECMG 1701/1703 VRB03KT
BECMG 1715/1717 18008KT


Example: see airport list